createdAt,value
2018-11-07T00:01:39.625Z,21.19
2018-11-07T00:04:07.265Z,21.20
2018-11-07T00:06:34.880Z,21.19
2018-11-07T00:09:02.587Z,21.21
2018-11-07T00:11:30.212Z,21.21
2018-11-07T00:13:57.900Z,21.20
2018-11-07T00:16:25.496Z,21.21
2018-11-07T00:18:53.123Z,21.22
2018-11-07T00:21:20.754Z,21.20
2018-11-07T00:23:48.378Z,21.21
2018-11-07T00:26:16.045Z,21.20
2018-11-07T00:28:43.690Z,21.22
2018-11-07T00:31:11.327Z,21.18
2018-11-07T00:33:38.959Z,21.20
2018-11-07T00:36:06.654Z,21.22
2018-11-07T00:38:34.275Z,21.19
2018-11-07T00:41:01.916Z,21.20
2018-11-07T00:43:29.549Z,21.22
2018-11-07T00:45:57.226Z,21.19
2018-11-07T00:48:24.869Z,21.18
2018-11-07T00:50:52.515Z,21.19
2018-11-07T00:53:20.197Z,21.19
2018-11-07T00:55:47.839Z,21.18
2018-11-07T00:58:15.572Z,21.17
2018-11-07T01:00:43.114Z,21.15
2018-11-07T01:03:10.766Z,21.17
2018-11-07T01:05:38.393Z,21.21
2018-11-07T01:08:06.029Z,21.18
2018-11-07T01:10:33.688Z,21.15
2018-11-07T01:13:01.358Z,21.14
2018-11-07T01:15:29.034Z,21.13
2018-11-07T01:17:56.697Z,21.11
2018-11-07T01:20:24.337Z,21.14
2018-11-07T01:22:51.969Z,21.15
2018-11-07T01:25:19.648Z,21.14
2018-11-07T01:27:47.350Z,21.16
2018-11-07T01:30:15.075Z,21.16
2018-11-07T01:32:42.787Z,21.13
2018-11-07T01:35:10.428Z,21.12
2018-11-07T01:37:38.287Z,21.16
2018-11-07T01:40:07.523Z,21.15
2018-11-07T01:42:35.161Z,21.12
2018-11-07T01:45:02.811Z,21.12
2018-11-07T01:47:30.582Z,21.09
2018-11-07T01:49:58.204Z,21.12
2018-11-07T01:52:25.870Z,21.10
2018-11-07T01:54:53.505Z,21.10
2018-11-07T01:57:21.178Z,21.10
2018-11-07T01:59:48.826Z,21.14
2018-11-07T02:02:16.578Z,21.12
2018-11-07T02:04:44.282Z,21.10
2018-11-07T02:07:11.921Z,21.08
2018-11-07T02:09:39.549Z,21.09
2018-11-07T02:12:07.175Z,21.08
2018-11-07T02:14:34.801Z,21.09
2018-11-07T02:17:02.445Z,21.10
2018-11-07T02:19:30.075Z,21.08
2018-11-07T02:21:57.708Z,21.13
2018-11-07T02:24:25.329Z,21.08
2018-11-07T02:26:52.952Z,21.07
2018-11-07T02:29:20.604Z,21.05
2018-11-07T02:31:48.235Z,21.03
2018-11-07T02:34:16.382Z,21.05
2018-11-07T02:36:44.452Z,21.05
2018-11-07T02:39:13.653Z,21.08
2018-11-07T02:41:41.963Z,21.00
2018-11-07T02:44:10.284Z,21.00
2018-11-07T02:46:37.929Z,21.03
2018-11-07T02:49:05.552Z,21.01
2018-11-07T02:51:33.182Z,21.05
2018-11-07T02:54:01.541Z,21.06
2018-11-07T02:56:29.424Z,21.01
2018-11-07T02:58:57.297Z,21.06
2018-11-07T03:01:25.190Z,21.08
2018-11-07T03:03:52.915Z,21.06
2018-11-07T03:06:20.567Z,21.03
2018-11-07T03:08:48.196Z,21.01
2018-11-07T03:11:15.834Z,21.01
2018-11-07T03:13:43.489Z,21.00
2018-11-07T03:16:11.110Z,21.02
2018-11-07T03:18:38.730Z,21.00
2018-11-07T03:21:06.369Z,20.99
2018-11-07T03:23:34.009Z,20.99
2018-11-07T03:26:01.637Z,21.00
2018-11-07T03:28:29.252Z,20.99
2018-11-07T03:30:56.887Z,21.00
2018-11-07T03:33:24.492Z,21.00
2018-11-07T03:35:52.124Z,21.01
2018-11-07T03:38:19.766Z,21.01
2018-11-07T03:40:47.420Z,21.03
2018-11-07T03:43:15.040Z,21.00
2018-11-07T03:45:48.127Z,21.01
2018-11-07T03:48:15.752Z,20.99
2018-11-07T03:50:43.373Z,21.03
2018-11-07T03:53:11.048Z,21.00
2018-11-07T03:55:38.651Z,20.98
2018-11-07T03:58:06.271Z,20.96
2018-11-07T04:00:33.892Z,20.95
2018-11-07T04:03:01.574Z,20.96
2018-11-07T04:05:29.225Z,20.97
2018-11-07T04:07:56.854Z,20.99
2018-11-07T04:10:24.477Z,20.98
2018-11-07T04:12:52.122Z,20.96
2018-11-07T04:15:19.845Z,20.96
2018-11-07T04:17:47.481Z,21.00
2018-11-07T04:20:15.135Z,21.00
2018-11-07T04:22:42.756Z,20.98
2018-11-07T04:25:10.667Z,21.00
2018-11-07T04:27:38.471Z,21.00
2018-11-07T04:30:08.121Z,21.01
2018-11-07T04:32:35.768Z,20.99
2018-11-07T04:35:03.433Z,21.02
2018-11-07T04:37:31.113Z,20.99
2018-11-07T04:39:59.063Z,21.01
2018-11-07T04:42:26.947Z,20.95
2018-11-07T04:44:54.601Z,20.96
2018-11-07T04:47:22.308Z,20.99
2018-11-07T04:49:49.934Z,20.98
2018-11-07T04:52:17.628Z,21.01
2018-11-07T04:54:45.254Z,20.97
2018-11-07T04:57:12.917Z,20.98
2018-11-07T04:59:40.548Z,20.99
2018-11-07T05:02:08.197Z,20.98
2018-11-07T05:04:35.816Z,20.98
2018-11-07T05:07:03.500Z,20.98
2018-11-07T05:09:31.129Z,20.96
2018-11-07T05:11:58.753Z,20.96
2018-11-07T05:14:26.384Z,20.96
2018-11-07T05:16:54.040Z,21.00
2018-11-07T05:19:21.685Z,21.03
2018-11-07T05:21:49.332Z,20.99
2018-11-07T05:24:16.999Z,20.97
2018-11-07T05:26:44.638Z,20.96
2018-11-07T05:29:12.265Z,20.90
2018-11-07T05:31:39.928Z,20.95
2018-11-07T05:34:07.586Z,20.94
2018-11-07T05:36:35.225Z,20.96
2018-11-07T05:39:02.932Z,20.96
2018-11-07T05:41:30.548Z,20.98
2018-11-07T05:43:58.265Z,21.03
2018-11-07T05:46:25.919Z,21.02
2018-11-07T05:48:53.555Z,20.96
2018-11-07T05:51:21.202Z,20.95
2018-11-07T05:53:48.843Z,20.95
2018-11-07T05:56:16.493Z,20.90
2018-11-07T05:58:44.105Z,20.92
2018-11-07T06:01:11.738Z,20.95
2018-11-07T06:03:39.349Z,20.95
2018-11-07T06:06:06.971Z,20.94
2018-11-07T06:08:34.593Z,20.92
2018-11-07T06:11:02.214Z,21.00
2018-11-07T06:13:29.865Z,20.95
2018-11-07T06:15:57.563Z,20.92
2018-11-07T06:18:25.205Z,20.91
2018-11-07T06:20:52.873Z,20.92
2018-11-07T06:23:20.506Z,20.91
2018-11-07T06:25:48.138Z,20.93
2018-11-07T06:28:15.973Z,20.92
2018-11-07T06:30:43.597Z,20.95
2018-11-07T06:33:11.274Z,20.98
2018-11-07T06:35:38.894Z,20.92
2018-11-07T06:38:06.535Z,20.94
2018-11-07T06:40:34.160Z,20.96
2018-11-07T06:43:01.785Z,20.97
2018-11-07T06:45:29.421Z,20.96
2018-11-07T06:47:57.054Z,20.96
2018-11-07T06:50:24.674Z,20.91
2018-11-07T06:52:52.331Z,20.90
2018-11-07T06:55:19.989Z,20.95
2018-11-07T06:57:47.616Z,20.94
2018-11-07T07:00:16.262Z,20.93
2018-11-07T07:02:44.657Z,20.91
2018-11-07T07:05:12.293Z,20.90
2018-11-07T07:07:39.953Z,20.93
2018-11-07T07:10:08.774Z,20.95
2018-11-07T07:12:36.442Z,20.96
2018-11-07T07:15:04.097Z,20.92
2018-11-07T07:17:31.799Z,20.95
2018-11-07T07:19:59.439Z,20.94
2018-11-07T07:22:27.081Z,20.92
2018-11-07T07:24:54.729Z,20.97
2018-11-07T07:27:22.344Z,20.96
2018-11-07T07:29:50.029Z,20.95
2018-11-07T07:32:17.616Z,20.94
2018-11-07T07:34:45.248Z,20.91
2018-11-07T07:37:12.891Z,20.87
2018-11-07T07:39:40.517Z,20.89
2018-11-07T07:42:08.165Z,20.89
2018-11-07T07:44:35.844Z,20.92
2018-11-07T07:47:03.476Z,20.93
2018-11-07T07:49:31.352Z,20.92
2018-11-07T07:51:59.006Z,20.90
2018-11-07T07:54:26.652Z,20.89
2018-11-07T07:56:54.358Z,20.87
2018-11-07T07:59:22.125Z,20.89
2018-11-07T08:01:49.770Z,20.87
2018-11-07T08:04:17.403Z,20.84
2018-11-07T08:06:45.081Z,20.89
2018-11-07T08:09:13.986Z,20.90
2018-11-07T08:11:41.940Z,20.91
2018-11-07T08:14:10.437Z,20.94
2018-11-07T08:16:38.310Z,20.94
2018-11-07T08:19:06.283Z,20.94
2018-11-07T08:21:33.924Z,20.96
2018-11-07T08:24:01.573Z,20.98
2018-11-07T08:26:29.261Z,20.98
2018-11-07T08:28:56.919Z,20.98
2018-11-07T08:31:24.553Z,20.96
2018-11-07T08:33:52.194Z,20.92
2018-11-07T08:36:19.818Z,20.97
2018-11-07T08:38:47.440Z,20.99
2018-11-07T08:41:15.075Z,20.99
2018-11-07T08:43:42.680Z,20.99
2018-11-07T08:46:10.293Z,20.99
2018-11-07T08:48:38.018Z,20.86
2018-11-07T08:51:06.022Z,21.03
2018-11-07T08:53:33.658Z,20.97
2018-11-07T08:56:01.299Z,20.95
2018-11-07T08:58:28.925Z,20.96
2018-11-07T09:00:56.585Z,20.96
2018-11-07T09:03:24.220Z,20.97
2018-11-07T09:05:51.882Z,20.97
2018-11-07T09:08:19.510Z,20.99
2018-11-07T09:10:47.150Z,20.95
2018-11-07T09:13:14.789Z,20.93
2018-11-07T09:15:42.429Z,20.95
2018-11-07T09:18:10.056Z,20.96
2018-11-07T09:20:37.669Z,20.96
2018-11-07T09:23:05.437Z,20.95
2018-11-07T09:25:33.075Z,20.99
2018-11-07T09:28:00.735Z,20.96
2018-11-07T09:30:28.378Z,20.97
2018-11-07T09:32:56.032Z,20.95
2018-11-07T09:35:23.677Z,20.91
2018-11-07T09:37:51.309Z,20.92
2018-11-07T09:40:20.143Z,20.95
2018-11-07T09:42:48.420Z,20.94
2018-11-07T09:45:17.211Z,20.96
2018-11-07T09:47:45.483Z,20.95
2018-11-07T09:50:14.078Z,20.93
2018-11-07T09:52:42.043Z,20.93
2018-11-07T09:55:10.525Z,20.94
2018-11-07T09:57:38.467Z,20.92
2018-11-07T10:00:07.493Z,20.94
2018-11-07T10:02:35.127Z,20.95
2018-11-07T10:05:02.823Z,20.96
2018-11-07T10:07:30.471Z,20.94
2018-11-07T10:09:58.101Z,20.91
2018-11-07T10:12:25.742Z,20.92
2018-11-07T10:14:53.876Z,20.94
2018-11-07T10:17:21.533Z,20.90
2018-11-07T10:19:49.187Z,20.90
2018-11-07T10:22:16.842Z,20.91
2018-11-07T10:24:44.471Z,20.93
2018-11-07T10:27:12.302Z,20.91
2018-11-07T10:29:40.045Z,21.01
2018-11-07T10:32:07.461Z,20.96
2018-11-07T10:34:35.179Z,20.99
2018-11-07T10:37:02.782Z,20.98
2018-11-07T10:39:30.485Z,21.05
2018-11-07T10:41:58.361Z,20.99
2018-11-07T10:44:26.051Z,21.01
2018-11-07T10:46:53.697Z,21.01
2018-11-07T10:49:21.404Z,21.02
2018-11-07T10:51:49.034Z,20.99
2018-11-07T10:54:16.702Z,21.01
2018-11-07T10:56:44.353Z,20.98
2018-11-07T10:59:11.984Z,20.92
2018-11-07T11:01:44.965Z,20.91
2018-11-07T11:04:12.593Z,20.94
2018-11-07T11:06:40.249Z,20.97
2018-11-07T11:09:08.163Z,20.97
2018-11-07T11:11:35.827Z,20.99
2018-11-07T11:14:03.669Z,21.00
2018-11-07T11:16:31.294Z,20.96
2018-11-07T11:18:58.941Z,20.97
2018-11-07T11:21:26.582Z,21.02
2018-11-07T11:23:54.210Z,21.03
2018-11-07T11:26:21.988Z,21.04
2018-11-07T11:28:49.615Z,21.06
2018-11-07T11:31:17.274Z,21.04
2018-11-07T11:33:44.987Z,21.10
2018-11-07T11:36:12.550Z,21.04
2018-11-07T11:38:40.211Z,21.08
2018-11-07T11:41:07.922Z,21.07
2018-11-07T11:43:35.510Z,21.05
2018-11-07T11:46:03.157Z,21.07
2018-11-07T11:48:30.790Z,21.07
2018-11-07T11:50:58.408Z,21.13
2018-11-07T11:53:26.054Z,21.15
2018-11-07T11:55:53.698Z,21.14
2018-11-07T11:58:21.314Z,21.12
2018-11-07T12:00:48.942Z,21.08
2018-11-07T12:03:16.565Z,21.06
2018-11-07T12:05:44.175Z,21.13
2018-11-07T12:08:11.833Z,21.12
2018-11-07T12:10:39.467Z,21.12
2018-11-07T12:13:07.221Z,21.13
2018-11-07T12:15:34.855Z,21.16
2018-11-07T12:18:02.484Z,21.15
2018-11-07T12:20:30.139Z,21.15
2018-11-07T12:22:57.765Z,21.15
2018-11-07T12:25:25.395Z,21.14
2018-11-07T12:27:53.041Z,21.17
2018-11-07T12:30:21.974Z,21.14
2018-11-07T12:32:50.681Z,21.17
2018-11-07T12:35:19.011Z,21.15
2018-11-07T12:37:46.864Z,21.16
2018-11-07T12:40:15.026Z,21.16
2018-11-07T12:42:42.727Z,21.18
2018-11-07T12:45:11.393Z,21.16
2018-11-07T12:47:39.465Z,21.17
2018-11-07T12:50:08.317Z,21.17
2018-11-07T12:52:35.834Z,21.15
2018-11-07T12:55:03.482Z,21.14
2018-11-07T12:57:31.114Z,21.14
2018-11-07T12:59:58.760Z,21.13
2018-11-07T13:02:26.403Z,21.15
2018-11-07T13:04:54.042Z,21.16
2018-11-07T13:07:21.660Z,21.18
2018-11-07T13:09:49.277Z,21.17
2018-11-07T13:12:16.921Z,21.19
2018-11-07T13:14:44.551Z,21.18
2018-11-07T13:17:12.173Z,21.17
2018-11-07T13:19:39.797Z,21.19
2018-11-07T13:22:07.462Z,21.22
2018-11-07T13:24:35.044Z,21.23
2018-11-07T13:27:02.671Z,21.19
2018-11-07T13:29:30.285Z,21.19
2018-11-07T13:31:57.913Z,21.20
2018-11-07T13:34:25.528Z,21.22
2018-11-07T13:36:53.319Z,21.20
2018-11-07T13:39:21.201Z,21.16
2018-11-07T13:41:48.554Z,21.21
2018-11-07T13:44:16.189Z,21.21
2018-11-07T13:46:43.819Z,21.22
2018-11-07T13:49:11.483Z,21.21
2018-11-07T13:51:39.306Z,21.19
2018-11-07T13:54:06.941Z,21.24
2018-11-07T13:56:34.606Z,21.22
2018-11-07T13:59:02.257Z,21.25
2018-11-07T14:01:30.337Z,21.24
2018-11-07T14:03:58.001Z,21.20
2018-11-07T14:06:25.610Z,21.23
2018-11-07T14:08:53.242Z,21.26
2018-11-07T14:11:20.881Z,21.24
2018-11-07T14:13:48.544Z,21.26
2018-11-07T14:16:16.213Z,21.24
2018-11-07T14:18:43.833Z,21.24
2018-11-07T14:21:11.478Z,21.22
2018-11-07T14:23:39.093Z,21.24
2018-11-07T14:26:06.756Z,21.28
2018-11-07T14:28:34.461Z,21.28
2018-11-07T14:31:02.065Z,21.23
2018-11-07T14:33:29.684Z,21.25
2018-11-07T14:35:57.328Z,21.23
2018-11-07T14:38:24.995Z,21.25
2018-11-07T14:40:52.622Z,21.25
2018-11-07T14:43:20.236Z,21.22
2018-11-07T14:45:47.856Z,21.19
2018-11-07T14:48:15.473Z,21.16
2018-11-07T14:50:43.101Z,21.16
2018-11-07T14:53:10.866Z,21.18
2018-11-07T14:55:38.517Z,21.13
2018-11-07T14:58:06.142Z,21.16
2018-11-07T15:00:33.751Z,21.19
2018-11-07T15:03:01.419Z,21.21
2018-11-07T15:05:29.059Z,21.18
2018-11-07T15:07:56.701Z,21.18
2018-11-07T15:10:24.326Z,21.18
2018-11-07T15:12:51.974Z,21.14
2018-11-07T15:15:20.007Z,21.15
2018-11-07T15:17:47.682Z,21.17
2018-11-07T15:20:16.144Z,21.16
2018-11-07T15:22:43.863Z,21.14
2018-11-07T15:25:12.677Z,21.12
2018-11-07T15:27:41.316Z,21.12
2018-11-07T15:30:09.421Z,21.13
2018-11-07T15:32:37.024Z,21.12
2018-11-07T15:35:05.042Z,21.14
2018-11-07T15:37:32.679Z,21.12
2018-11-07T15:40:00.386Z,21.15
2018-11-07T15:42:28.009Z,21.12
2018-11-07T15:44:55.652Z,21.12
2018-11-07T15:47:23.277Z,21.10
2018-11-07T15:49:56.289Z,21.09
2018-11-07T15:52:23.995Z,21.09
2018-11-07T15:54:51.598Z,21.10
2018-11-07T15:57:19.249Z,21.07
2018-11-07T15:59:46.900Z,21.12
2018-11-07T16:02:14.594Z,21.09
2018-11-07T16:04:42.221Z,21.07
2018-11-07T16:07:09.824Z,21.05
2018-11-07T16:09:37.453Z,21.06
2018-11-07T16:12:05.375Z,21.02
2018-11-07T16:14:33.023Z,21.03
2018-11-07T16:17:00.686Z,21.06
2018-11-07T16:19:28.338Z,21.04
2018-11-07T16:21:55.956Z,21.05
2018-11-07T16:24:23.602Z,21.05
2018-11-07T16:26:51.304Z,21.00
2018-11-07T16:29:18.920Z,20.97
2018-11-07T16:31:46.575Z,20.99
2018-11-07T16:34:14.192Z,20.98
2018-11-07T16:36:41.855Z,20.98
2018-11-07T16:39:10.661Z,21.00
2018-11-07T16:41:38.391Z,21.00
2018-11-07T16:44:05.962Z,20.97
2018-11-07T16:46:33.581Z,21.00
2018-11-07T16:49:01.210Z,20.96
2018-11-07T16:51:28.949Z,20.90
2018-11-07T16:53:56.568Z,20.93
2018-11-07T16:56:24.185Z,20.94
2018-11-07T16:58:51.837Z,20.93
2018-11-07T17:01:19.538Z,20.92
2018-11-07T17:03:47.173Z,20.90
2018-11-07T17:06:14.788Z,20.90
2018-11-07T17:08:42.442Z,20.96
2018-11-07T17:11:10.085Z,20.98
2018-11-07T17:13:37.713Z,20.92
2018-11-07T17:16:05.445Z,20.95
2018-11-07T17:18:33.070Z,21.01
2018-11-07T17:21:00.718Z,20.97
2018-11-07T17:23:28.364Z,20.82
2018-11-07T17:25:56.002Z,20.98
2018-11-07T17:28:23.653Z,20.98
2018-11-07T17:30:51.303Z,20.95
2018-11-07T17:33:18.935Z,20.98
2018-11-07T17:35:46.561Z,21.00
2018-11-07T17:38:14.198Z,21.00
2018-11-07T17:40:41.844Z,20.99
2018-11-07T17:43:09.486Z,20.98
2018-11-07T17:45:37.126Z,20.91
2018-11-07T17:48:04.899Z,20.89
2018-11-07T17:50:32.481Z,20.88
2018-11-07T17:53:00.116Z,20.95
2018-11-07T17:55:27.782Z,20.91
2018-11-07T17:57:55.469Z,20.90
2018-11-07T18:00:27.282Z,20.89
2018-11-07T18:02:54.970Z,20.90
2018-11-07T18:05:22.602Z,20.91
2018-11-07T18:07:50.230Z,20.90
2018-11-07T18:10:18.578Z,20.91
2018-11-07T18:12:46.529Z,20.91
2018-11-07T18:15:14.165Z,20.94
2018-11-07T18:17:41.842Z,20.29
2018-11-07T18:20:10.430Z,20.92
2018-11-07T18:22:38.066Z,20.90
2018-11-07T18:25:06.349Z,20.89
2018-11-07T18:27:34.005Z,20.91
2018-11-07T18:30:01.657Z,20.92
2018-11-07T18:32:29.766Z,20.94
2018-11-07T18:34:57.898Z,20.91
2018-11-07T18:37:25.697Z,20.88
2018-11-07T18:39:53.449Z,20.89
2018-11-07T18:42:21.177Z,20.92
2018-11-07T18:44:49.208Z,20.96
2018-11-07T18:47:17.410Z,21.00
2018-11-07T18:49:45.165Z,20.96
2018-11-07T18:52:12.805Z,20.89
2018-11-07T18:54:40.817Z,20.85
2018-11-07T18:57:08.925Z,20.89
2018-11-07T18:59:36.771Z,20.88
2018-11-07T19:02:04.512Z,20.87
2018-11-07T19:04:32.246Z,20.86
2018-11-07T19:06:59.990Z,20.88
2018-11-07T19:09:27.641Z,20.87
2018-11-07T19:11:55.945Z,20.84
2018-11-07T19:14:24.372Z,20.83
2018-11-07T19:16:52.167Z,20.87
2018-11-07T19:19:19.818Z,20.83
2018-11-07T19:21:48.061Z,20.81
2018-11-07T19:24:15.749Z,20.82
2018-11-07T19:26:43.505Z,20.86
2018-11-07T19:29:11.085Z,20.83
2018-11-07T19:31:38.726Z,20.85
2018-11-07T19:34:06.369Z,20.81
2018-11-07T19:36:33.993Z,20.79
2018-11-07T19:39:01.645Z,20.82
2018-11-07T19:41:29.262Z,20.81
2018-11-07T19:43:56.886Z,20.82
2018-11-07T19:46:24.508Z,20.83
2018-11-07T19:48:52.121Z,20.81
2018-11-07T19:51:19.790Z,20.82
2018-11-07T19:53:47.472Z,20.80
2018-11-07T19:56:15.077Z,20.81
2018-11-07T19:58:42.680Z,20.85
2018-11-07T20:01:10.317Z,20.89
2018-11-07T20:03:37.941Z,20.81
2018-11-07T20:06:05.822Z,20.80
2018-11-07T20:08:33.436Z,20.79
2018-11-07T20:11:01.050Z,20.80
2018-11-07T20:13:28.707Z,20.82
2018-11-07T20:15:56.330Z,20.78
2018-11-07T20:18:23.982Z,20.81
2018-11-07T20:20:51.619Z,20.84
2018-11-07T20:23:19.337Z,20.85
2018-11-07T20:25:46.934Z,20.86
2018-11-07T20:28:14.610Z,20.82
2018-11-07T20:30:42.235Z,20.86
2018-11-07T20:33:09.857Z,20.88
2018-11-07T20:35:37.582Z,20.85
2018-11-07T20:38:05.443Z,20.86
2018-11-07T20:40:33.096Z,20.89
2018-11-07T20:43:00.730Z,20.92
2018-11-07T20:45:28.389Z,20.90
2018-11-07T20:47:56.005Z,20.89
2018-11-07T20:50:23.640Z,20.89
2018-11-07T20:52:51.256Z,20.91
2018-11-07T20:55:19.098Z,20.94
2018-11-07T20:57:46.720Z,20.91
2018-11-07T21:00:16.162Z,20.89
2018-11-07T21:02:44.231Z,20.88
2018-11-07T21:05:12.189Z,20.91
2018-11-07T21:07:40.402Z,20.84
2018-11-07T21:10:09.371Z,20.82
2018-11-07T21:12:37.025Z,20.82
2018-11-07T21:15:05.795Z,20.82
2018-11-07T21:17:33.516Z,20.80
2018-11-07T21:20:01.137Z,20.82
2018-11-07T21:22:28.821Z,20.78
2018-11-07T21:24:56.472Z,20.77
2018-11-07T21:27:24.092Z,20.80
2018-11-07T21:29:51.758Z,20.81
2018-11-07T21:32:19.372Z,20.83
2018-11-07T21:34:47.038Z,20.82
2018-11-07T21:37:14.688Z,20.83
2018-11-07T21:39:42.308Z,20.85
2018-11-07T21:42:10.090Z,20.80
2018-11-07T21:44:37.713Z,20.81
2018-11-07T21:47:05.413Z,20.81
2018-11-07T21:49:33.014Z,20.80
2018-11-07T21:52:00.659Z,20.75
2018-11-07T21:54:28.283Z,20.72
2018-11-07T21:56:56.025Z,20.75
2018-11-07T21:59:23.690Z,20.70
2018-11-07T22:01:51.326Z,20.68
2018-11-07T22:04:18.953Z,20.70
2018-11-07T22:06:46.594Z,20.71
2018-11-07T22:09:14.216Z,20.69
2018-11-07T22:11:41.859Z,20.70
2018-11-07T22:14:09.482Z,20.69
2018-11-07T22:16:37.885Z,20.71
2018-11-07T22:19:05.628Z,20.70
2018-11-07T22:21:33.257Z,20.70
2018-11-07T22:24:00.993Z,20.69
2018-11-07T22:26:28.819Z,20.72
2018-11-07T22:28:56.602Z,20.74
2018-11-07T22:31:24.391Z,20.68
2018-11-07T22:33:52.126Z,20.68
2018-11-07T22:36:19.755Z,20.74
2018-11-07T22:38:47.437Z,20.74
2018-11-07T22:41:15.165Z,20.73
2018-11-07T22:43:42.817Z,20.69
2018-11-07T22:46:10.436Z,20.68
2018-11-07T22:48:38.052Z,20.70
2018-11-07T22:51:05.749Z,20.71
2018-11-07T22:53:33.386Z,20.72
2018-11-07T22:56:01.011Z,20.66
2018-11-07T22:58:28.715Z,20.67
2018-11-07T23:01:02.791Z,20.66
2018-11-07T23:03:30.782Z,20.69
2018-11-07T23:05:58.427Z,20.69
2018-11-07T23:08:26.079Z,20.68
2018-11-07T23:10:54.134Z,20.67
2018-11-07T23:13:21.847Z,20.66
2018-11-07T23:15:49.898Z,20.64
2018-11-07T23:18:18.866Z,20.63
2018-11-07T23:20:46.860Z,20.60
2018-11-07T23:23:15.298Z,20.63
2018-11-07T23:25:43.026Z,20.61
2018-11-07T23:28:11.581Z,20.65
2018-11-07T23:30:39.914Z,20.63
2018-11-07T23:33:08.246Z,20.62
2018-11-07T23:35:37.288Z,20.60
2018-11-07T23:38:05.957Z,20.62
2018-11-07T23:40:34.277Z,20.68
2018-11-07T23:43:02.475Z,20.68
2018-11-07T23:45:30.750Z,20.65
2018-11-07T23:47:59.068Z,20.63
2018-11-07T23:50:27.948Z,20.63
2018-11-07T23:52:56.292Z,20.62
2018-11-07T23:55:25.134Z,20.63
2018-11-07T23:57:54.041Z,20.63
